Αναφορές METAR

 

LGKZ - Kozani (civ/Army, Greece
Distance from station: ΝΔ 41km
Ενημερώθηκε: 05/06/2020 07:50
Μερικώς νεφελώδης
Μερικώς νεφελώδης
 Ανεμος από calm
Ανεμος: Απνοια
Θερμοκρασία: 14°C
Σημείο Δρόσου: 5°C
Υγρασία: 55%
Βαρόμετρο: 1013 hPa
Clouds: Μερικώς νεφελώδης
Visibility: 10 km
Cloud details: Μερικώς νεφελώδης 2438 m
2020/06/05 04:50 LGKZ 050450Z 00000KT 9999 SCT080 14/05 Q1013
LGTS - Thessaloniki/Mik, Greece
Distance from station: Α 64km
Ενημερώθηκε: 05/06/2020 08:50
Αίθριος
Αίθριος
 Ανεμος από varies
Ανεμος: varies 4 km/h
Θερμοκρασία: 20°C
Σημείο Δρόσου: 15°C
Υγρασία: 73%
Βαρόμετρο: 1011 hPa
Περίληψη: Αίθριος
Visibility: greater than 10 km
2020/06/05 05:50 LGTS 050550Z VRB02KT CAVOK 20/15 Q1011 NOSIG
 
LGIO - Ioannina, Greece
Distance from station: ΝΔ 149km
Ενημερώθηκε: 05/06/2020 08:50
Μερικώς νεφελώδης
Μερικώς νεφελώδης
 Ανεμος από varies
Ανεμος: varies 2 km/h
Θερμοκρασία: 14°C
Σημείο Δρόσου: 11°C
Υγρασία: 82%
Βαρόμετρο: 1013 hPa
Clouds: Μερικώς νεφελώδης
Visibility: 10 km
Cloud details: Μερικώς νεφελώδης 914 m
2020/06/05 05:50 LGIO 050550Z VRB01KT 9999 SCT030 14/11 Q1013
LGBL - Nea Anchialos, Greece
Distance from station: ΝΝΑ 154km
Ενημερώθηκε: 05/06/2020 08:50
Αίθριος
Αίθριος
 Ανεμος από calm
Ανεμος: Απνοια
Θερμοκρασία: 20°C
Σημείο Δρόσου: 11°C
Υγρασία: 56%
Βαρόμετρο: 1012 hPa
Περίληψη: Αίθριος
Visibility: greater than 10 km
2020/06/05 05:50 LGBL 050550Z 00000KT CAVOK 20/11 Q1012
 
LGSK - Skiathos Island, Greece
Distance from station: ΝΑ 185km
Ενημερώθηκε: 04/06/2020 19:50
NOT Current
Αίθριος
Αίθριος
 Ανεμος από ΝΝΔ
Ανεμος: ΝΝΔ 13 km/h
Θερμοκρασία: 22°C
Σημείο Δρόσου: 14°C
Υγρασία: 61%
Βαρόμετρο: 1011 hPa
Περίληψη: Αίθριος
Visibility: greater than 10 km
2020/06/04 16:50 LGSK 041650Z 20007KT CAVOK 22/14 Q1011
LGKV - Kavala/Chrisoupo, Greece
Distance from station: ΑΒΑ 208km
Ενημερώθηκε: 05/06/2020 08:50
Few Clouds
Few Clouds
 Ανεμος από ΒΑ
Ανεμος: ΒΑ 15 km/h
Θερμοκρασία: 21°C
Σημείο Δρόσου: 17°C
Υγρασία: 78%
Βαρόμετρο: 1012 hPa
Clouds: Few Clouds
Visibility: 10 km
Cloud details: Few Clouds 305 m
2020/06/05 05:50 LGKV 050550Z 04008KT 9999 FEW010 21/17 Q1012
 
LGPZ - Preveza/Aktion, Greece
Distance from station: ΝΔ 217km
Ενημερώθηκε: 05/06/2020 08:50
Few Clouds
Few Clouds
 Ανεμος από ΑΒΑ
Ανεμος: ΑΒΑ 19 km/h
Θερμοκρασία: 20°C
Σημείο Δρόσου: 16°C
Υγρασία: 78%
Βαρόμετρο: 1014 hPa
Clouds: Few Clouds
Visibility: 10 km
Cloud details: Few Clouds 610 m
2020/06/05 05:50 LGPZ 050550Z 06010KT 9999 FEW020 20/16 Q1014
LGKR - Ioannis Kapodist, Greece
Distance from station: ΔΝΔ 219km
Ενημερώθηκε: 05/06/2020 08:50
Few Clouds
Few Clouds
 Ανεμος από ΝΑ
Ανεμος: ΝΑ 28 km/h
Θερμοκρασία: 20°C
Σημείο Δρόσου: 16°C
Υγρασία: 78%
Βαρόμετρο: 1012 hPa
Clouds: Few Clouds
Visibility: 10 km
Cloud details: Few Clouds 457 m
2020/06/05 05:50 LGKR 050550Z 14015KT 9999 FEW015 20/16 Q1012 NOSIG
 
LGSY - Skiros, Greece
Distance from station: ΝΑ 261km
Ενημερώθηκε: 05/06/2020 08:50
Αίθριος
Αίθριος
 Ανεμος από Ν
Ανεμος: Ν 20 km/h
Θερμοκρασία: 23°C
Σημείο Δρόσου: 11°C
Υγρασία: 47%
Βαρόμετρο: 1012 hPa
Περίληψη: Αίθριος
Visibility: greater than 10 km
2020/06/05 05:50 LGSY 050550Z 19011KT CAVOK 23/11 Q1012 RMK BKN180 BLU
LGLM - Limnos Island Ar, Greece
Distance from station: ΑΝΑ 266km
Ενημερώθηκε: 05/06/2020 08:50
Few Clouds
Few Clouds
 Ανεμος από Ν
Ανεμος: Ν 22 km/h, Ριπή: 41 km/h
Θερμοκρασία: 21°C
Σημείο Δρόσου: 18°C
Υγρασία: 83%
Βαρόμετρο: 1013 hPa
Clouds: Few Clouds
Visibility: 10 km
Cloud details: Few Clouds 305 m
2020/06/05 05:50 LGLM 050550Z 18012G22KT 9999 FEW010 21/18 Q1013
 
LGRX - Araxos (civ/Afb), Greece
Distance from station: ΝΝΔ 271km
Ενημερώθηκε: 05/06/2020 08:50
Αίθριος
Αίθριος
 Ανεμος από varies
Ανεμος: varies 6 km/h
Θερμοκρασία: 20°C
Σημείο Δρόσου: 14°C
Υγρασία: 69%
Βαρόμετρο: 1014 hPa
Περίληψη: Αίθριος
Visibility: greater than 10 km
2020/06/05 05:50 LGRX 050550Z VRB03KT CAVOK 20/14 Q1014
LGEL - Elefsis (hel-Afb, Greece
Distance from station: ΝΝΑ 297km
Ενημερώθηκε: 05/06/2020 08:50
Αίθριος
Αίθριος
 Ανεμος από varies
Ανεμος: varies 0 km/h
Θερμοκρασία: 21°C
Σημείο Δρόσου: 14°C
Υγρασία: 64%
Βαρόμετρο: 1013 hPa
Περίληψη: Αίθριος
Visibility: greater than 10 km
2020/06/05 05:50 LGEL 050550Z /////KT CAVOK 21/14 Q1013
 
LGAD - Andravida (civ/A, Greece
Distance from station: ΝΝΔ 301km
Ενημερώθηκε: 05/06/2020 08:50
Αίθριος
Αίθριος
 Ανεμος από calm
Ανεμος: Απνοια
Θερμοκρασία: 21°C
Σημείο Δρόσου: 12°C
Υγρασία: 57%
Βαρόμετρο: 1014 hPa
Περίληψη: Αίθριος
Visibility: greater than 10 km
2020/06/05 05:50 LGAD 050550Z 00000KT CAVOK 21/12 Q1014
LGKF - Kefallinia, Greece
Distance from station: ΝΝΔ 305km
Ενημερώθηκε: 05/06/2020 08:50
Few Clouds
Few Clouds
 Ανεμος από ΝΑ
Ανεμος: ΝΑ 19 km/h
Θερμοκρασία: 20°C
Σημείο Δρόσου: 17°C
Υγρασία: 83%
Βαρόμετρο: 1013 hPa
Clouds: Few Clouds
Visibility: 10 km
Cloud details: Few Clouds 457 m
2020/06/05 05:50 LGKF 050550Z 13010KT 9999 FEW015 20/17 Q1013